Terminal Aerodrome Forecast
Issued by NWS Northern Indiana

Home | Current Version | Previous Version | Text Only | Print | Product List | Glossary Off
Versions: 1 2 3 4 5 6 7 8 9 10 11 12 13 14

000
FTUS43 KIWX 201740
TAFFWA
TAF
KFWA 201740Z 2018/2118 24018G28KT P6SM VCTS BKN040CB OVC250
      TEMPO 2019/2022 3SM +TSRA BKN030CB
     FM202200 27015G25KT P6SM BKN035
     FM210300 29013KT P6SM BKN020=

USA.gov is the U.S. government's official web portal to all federal, state and local government web resources and services.